sensor_id;sensor_type;location;lat;lon;timestamp;temperature;humidity
57857;DHT22;43683;48.650;9.290;2023-08-12T00:00:48;17.50;81.60
57857;DHT22;43683;48.650;9.290;2023-08-12T00:03:14;17.50;81.80
57857;DHT22;43683;48.650;9.290;2023-08-12T00:05:39;17.60;81.90
57857;DHT22;43683;48.650;9.290;2023-08-12T00:08:05;17.50;82.70
57857;DHT22;43683;48.650;9.290;2023-08-12T00:10:31;17.50;82.20
57857;DHT22;43683;48.650;9.290;2023-08-12T00:12:57;17.50;82.30
57857;DHT22;43683;48.650;9.290;2023-08-12T00:15:22;17.50;82.40
57857;DHT22;43683;48.650;9.290;2023-08-12T00:17:48;17.40;82.50
57857;DHT22;43683;48.650;9.290;2023-08-12T00:20:13;17.40;82.80
57857;DHT22;43683;48.650;9.290;2023-08-12T00:22:39;17.30;83.00
57857;DHT22;43683;48.650;9.290;2023-08-12T00:25:06;17.30;83.30
57857;DHT22;43683;48.650;9.290;2023-08-12T00:27:32;17.20;83.40
57857;DHT22;43683;48.650;9.290;2023-08-12T00:29:57;17.30;83.60
57857;DHT22;43683;48.650;9.290;2023-08-12T00:32:23;17.20;83.70
57857;DHT22;43683;48.650;9.290;2023-08-12T00:34:48;17.20;83.70
57857;DHT22;43683;48.650;9.290;2023-08-12T00:37:14;17.20;83.80
57857;DHT22;43683;48.650;9.290;2023-08-12T00:39:40;17.10;83.90
57857;DHT22;43683;48.650;9.290;2023-08-12T00:42:05;17.10;84.20
57857;DHT22;43683;48.650;9.290;2023-08-12T00:44:31;17.10;84.40
57857;DHT22;43683;48.650;9.290;2023-08-12T00:46:56;17.00;84.50
57857;DHT22;43683;48.650;9.290;2023-08-12T00:49:23;17.00;84.60
57857;DHT22;43683;48.650;9.290;2023-08-12T00:51:51;17.00;84.90
57857;DHT22;43683;48.650;9.290;2023-08-12T00:54:18;17.00;85.00
57857;DHT22;43683;48.650;9.290;2023-08-12T00:56:45;16.90;85.10
57857;DHT22;43683;48.650;9.290;2023-08-12T00:59:12;16.90;85.20
57857;DHT22;43683;48.650;9.290;2023-08-12T01:01:40;16.80;85.50
57857;DHT22;43683;48.650;9.290;2023-08-12T01:04:07;16.80;85.60
57857;DHT22;43683;48.650;9.290;2023-08-12T01:06:33;16.80;85.80
57857;DHT22;43683;48.650;9.290;2023-08-12T01:08:59;16.80;86.00
57857;DHT22;43683;48.650;9.290;2023-08-12T01:11:29;16.70;86.00
57857;DHT22;43683;48.650;9.290;2023-08-12T01:14:07;16.70;86.10
57857;DHT22;43683;48.650;9.290;2023-08-12T01:16:39;16.60;86.60
57857;DHT22;43683;48.650;9.290;2023-08-12T01:19:11;16.60;86.60
57857;DHT22;43683;48.650;9.290;2023-08-12T01:21:40;16.60;86.90
57857;DHT22;43683;48.650;9.290;2023-08-12T01:24:07;16.50;86.90
57857;DHT22;43683;48.650;9.290;2023-08-12T01:26:33;16.50;86.90
57857;DHT22;43683;48.650;9.290;2023-08-12T01:28:59;16.50;87.00
57857;DHT22;43683;48.650;9.290;2023-08-12T01:31:36;16.50;87.10
57857;DHT22;43683;48.650;9.290;2023-08-12T01:34:13;16.50;87.60
57857;DHT22;43683;48.650;9.290;2023-08-12T01:36:42;16.50;87.70
57857;DHT22;43683;48.650;9.290;2023-08-12T01:39:10;16.50;86.50
57857;DHT22;43683;48.650;9.290;2023-08-12T01:41:36;16.50;86.50
57857;DHT22;43683;48.650;9.290;2023-08-12T01:44:03;16.50;86.70
57857;DHT22;43683;48.650;9.290;2023-08-12T01:46:29;16.40;87.10
57857;DHT22;43683;48.650;9.290;2023-08-12T01:48:54;16.40;87.30
57857;DHT22;43683;48.650;9.290;2023-08-12T01:51:20;16.50;87.50
57857;DHT22;43683;48.650;9.290;2023-08-12T01:53:45;16.50;87.60
57857;DHT22;43683;48.650;9.290;2023-08-12T01:56:11;16.50;87.70
57857;DHT22;43683;48.650;9.290;2023-08-12T01:58:36;16.50;87.80
57857;DHT22;43683;48.650;9.290;2023-08-12T02:01:02;16.50;87.90
57857;DHT22;43683;48.650;9.290;2023-08-12T02:03:28;16.50;88.00
57857;DHT22;43683;48.650;9.290;2023-08-12T02:05:53;16.60;88.00
57857;DHT22;43683;48.650;9.290;2023-08-12T02:08:19;16.60;88.50
57857;DHT22;43683;48.650;9.290;2023-08-12T02:10:44;16.70;87.70
57857;DHT22;43683;48.650;9.290;2023-08-12T02:13:10;16.80;87.50
57857;DHT22;43683;48.650;9.290;2023-08-12T02:15:35;16.90;87.30
57857;DHT22;43683;48.650;9.290;2023-08-12T02:18:01;17.00;87.10
57857;DHT22;43683;48.650;9.290;2023-08-12T02:20:27;17.10;86.90
57857;DHT22;43683;48.650;9.290;2023-08-12T02:22:52;17.20;86.70
57857;DHT22;43683;48.650;9.290;2023-08-12T02:25:18;17.20;86.50
57857;DHT22;43683;48.650;9.290;2023-08-12T02:27:43;17.30;86.50
57857;DHT22;43683;48.650;9.290;2023-08-12T02:30:09;17.30;86.50
57857;DHT22;43683;48.650;9.290;2023-08-12T02:32:36;17.30;86.50
57857;DHT22;43683;48.650;9.290;2023-08-12T02:35:01;17.40;86.50
57857;DHT22;43683;48.650;9.290;2023-08-12T02:37:27;17.40;86.40
57857;DHT22;43683;48.650;9.290;2023-08-12T02:39:52;17.50;86.50
57857;DHT22;43683;48.650;9.290;2023-08-12T02:42:18;17.50;86.20
57857;DHT22;43683;48.650;9.290;2023-08-12T02:44:43;17.60;86.20
57857;DHT22;43683;48.650;9.290;2023-08-12T02:47:09;17.60;86.10
57857;DHT22;43683;48.650;9.290;2023-08-12T02:49:34;17.70;86.00
57857;DHT22;43683;48.650;9.290;2023-08-12T02:52:00;17.70;85.90
57857;DHT22;43683;48.650;9.290;2023-08-12T02:54:25;17.80;85.80
57857;DHT22;43683;48.650;9.290;2023-08-12T02:56:51;17.80;85.80
57857;DHT22;43683;48.650;9.290;2023-08-12T02:59:17;17.80;85.90
57857;DHT22;43683;48.650;9.290;2023-08-12T03:01:42;17.80;86.10
57857;DHT22;43683;48.650;9.290;2023-08-12T03:04:08;17.80;86.30
57857;DHT22;43683;48.650;9.290;2023-08-12T03:06:34;17.80;86.40
57857;DHT22;43683;48.650;9.290;2023-08-12T03:08:59;17.90;86.20
57857;DHT22;43683;48.650;9.290;2023-08-12T03:11:25;17.90;86.00
57857;DHT22;43683;48.650;9.290;2023-08-12T03:13:50;18.00;85.90
57857;DHT22;43683;48.650;9.290;2023-08-12T03:16:16;18.00;85.70
57857;DHT22;43683;48.650;9.290;2023-08-12T03:18:41;18.00;85.70
57857;DHT22;43683;48.650;9.290;2023-08-12T03:21:08;18.00;85.60
57857;DHT22;43683;48.650;9.290;2023-08-12T03:23:35;18.00;85.60
57857;DHT22;43683;48.650;9.290;2023-08-12T03:26:01;18.00;85.70
57857;DHT22;43683;48.650;9.290;2023-08-12T03:28:26;18.00;85.60
57857;DHT22;43683;48.650;9.290;2023-08-12T03:30:52;18.00;85.70
57857;DHT22;43683;48.650;9.290;2023-08-12T03:33:18;18.00;85.80
57857;DHT22;43683;48.650;9.290;2023-08-12T03:35:50;18.10;85.90
57857;DHT22;43683;48.650;9.290;2023-08-12T03:38:16;18.10;86.00
57857;DHT22;43683;48.650;9.290;2023-08-12T03:40:41;18.10;85.80
57857;DHT22;43683;48.650;9.290;2023-08-12T03:43:07;18.10;85.80
57857;DHT22;43683;48.650;9.290;2023-08-12T03:45:39;18.10;85.80
57857;DHT22;43683;48.650;9.290;2023-08-12T03:48:05;18.00;85.70
57857;DHT22;43683;48.650;9.290;2023-08-12T03:50:36;18.10;85.70
57857;DHT22;43683;48.650;9.290;2023-08-12T03:53:02;18.10;85.90
57857;DHT22;43683;48.650;9.290;2023-08-12T03:55:32;18.00;85.90
57857;DHT22;43683;48.650;9.290;2023-08-12T03:57:59;18.00;86.20
57857;DHT22;43683;48.650;9.290;2023-08-12T04:00:25;18.00;86.10
57857;DHT22;43683;48.650;9.290;2023-08-12T04:02:50;18.10;86.10
57857;DHT22;43683;48.650;9.290;2023-08-12T04:05:16;18.10;86.00
57857;DHT22;43683;48.650;9.290;2023-08-12T04:07:42;18.20;85.90
57857;DHT22;43683;48.650;9.290;2023-08-12T04:10:08;18.20;85.70
57857;DHT22;43683;48.650;9.290;2023-08-12T04:12:34;18.30;85.60
57857;DHT22;43683;48.650;9.290;2023-08-12T04:15:00;18.30;85.40
57857;DHT22;43683;48.650;9.290;2023-08-12T04:17:29;18.40;85.30
57857;DHT22;43683;48.650;9.290;2023-08-12T04:19:55;18.40;85.30
57857;DHT22;43683;48.650;9.290;2023-08-12T04:22:21;18.40;85.30
57857;DHT22;43683;48.650;9.290;2023-08-12T04:24:46;18.40;85.40
57857;DHT22;43683;48.650;9.290;2023-08-12T04:27:12;18.40;85.40
57857;DHT22;43683;48.650;9.290;2023-08-12T04:29:38;18.40;85.50
57857;DHT22;43683;48.650;9.290;2023-08-12T04:32:04;18.40;85.60
57857;DHT22;43683;48.650;9.290;2023-08-12T04:34:29;18.40;85.80
57857;DHT22;43683;48.650;9.290;2023-08-12T04:36:55;18.40;85.70
57857;DHT22;43683;48.650;9.290;2023-08-12T04:39:21;18.50;85.80
57857;DHT22;43683;48.650;9.290;2023-08-12T04:41:47;18.50;85.70
57857;DHT22;43683;48.650;9.290;2023-08-12T04:44:13;18.50;85.50
57857;DHT22;43683;48.650;9.290;2023-08-12T04:46:38;18.50;85.50
57857;DHT22;43683;48.650;9.290;2023-08-12T04:49:04;18.50;85.30
57857;DHT22;43683;48.650;9.290;2023-08-12T04:51:30;18.60;85.30
57857;DHT22;43683;48.650;9.290;2023-08-12T04:53:56;18.60;85.30
57857;DHT22;43683;48.650;9.290;2023-08-12T04:56:21;18.50;85.10
57857;DHT22;43683;48.650;9.290;2023-08-12T04:58:47;18.60;85.20
57857;DHT22;43683;48.650;9.290;2023-08-12T05:01:13;18.50;85.00
57857;DHT22;43683;48.650;9.290;2023-08-12T05:03:38;18.60;84.90
57857;DHT22;43683;48.650;9.290;2023-08-12T05:06:04;18.60;84.70
57857;DHT22;43683;48.650;9.290;2023-08-12T05:08:30;18.70;84.80
57857;DHT22;43683;48.650;9.290;2023-08-12T05:10:55;18.70;84.80
57857;DHT22;43683;48.650;9.290;2023-08-12T05:13:21;18.70;84.60
57857;DHT22;43683;48.650;9.290;2023-08-12T05:15:48;18.70;84.40
57857;DHT22;43683;48.650;9.290;2023-08-12T05:18:14;18.90;84.30
57857;DHT22;43683;48.650;9.290;2023-08-12T05:20:41;19.00;84.00
57857;DHT22;43683;48.650;9.290;2023-08-12T05:23:07;19.10;83.70
57857;DHT22;43683;48.650;9.290;2023-08-12T05:25:33;19.30;83.90
57857;DHT22;43683;48.650;9.290;2023-08-12T05:27:58;19.50;82.60
57857;DHT22;43683;48.650;9.290;2023-08-12T05:30:24;19.60;82.10
57857;DHT22;43683;48.650;9.290;2023-08-12T05:32:49;19.70;81.80
57857;DHT22;43683;48.650;9.290;2023-08-12T05:35:15;19.80;81.40
57857;DHT22;43683;48.650;9.290;2023-08-12T05:37:40;20.00;80.90
57857;DHT22;43683;48.650;9.290;2023-08-12T05:40:08;20.10;80.70
57857;DHT22;43683;48.650;9.290;2023-08-12T05:42:35;20.10;80.70
57857;DHT22;43683;48.650;9.290;2023-08-12T05:45:01;20.10;81.90
57857;DHT22;43683;48.650;9.290;2023-08-12T05:47:27;20.10;81.20
57857;DHT22;43683;48.650;9.290;2023-08-12T05:49:53;20.10;81.30
57857;DHT22;43683;48.650;9.290;2023-08-12T05:52:18;20.10;81.30
57857;DHT22;43683;48.650;9.290;2023-08-12T05:54:44;20.30;80.80
57857;DHT22;43683;48.650;9.290;2023-08-12T05:57:09;20.50;80.30
57857;DHT22;43683;48.650;9.290;2023-08-12T05:59:42;20.70;79.70
57857;DHT22;43683;48.650;9.290;2023-08-12T06:02:07;20.80;79.10
57857;DHT22;43683;48.650;9.290;2023-08-12T06:04:33;20.90;78.90
57857;DHT22;43683;48.650;9.290;2023-08-12T06:06:58;21.00;78.60
57857;DHT22;43683;48.650;9.290;2023-08-12T06:09:24;21.10;78.40
57857;DHT22;43683;48.650;9.290;2023-08-12T06:11:49;21.30;78.10
57857;DHT22;43683;48.650;9.290;2023-08-12T06:14:15;21.40;77.80
57857;DHT22;43683;48.650;9.290;2023-08-12T06:16:40;21.60;76.80
57857;DHT22;43683;48.650;9.290;2023-08-12T06:19:06;21.80;76.10
57857;DHT22;43683;48.650;9.290;2023-08-12T06:21:31;21.80;76.70
57857;DHT22;43683;48.650;9.290;2023-08-12T06:23:57;21.80;76.40
57857;DHT22;43683;48.650;9.290;2023-08-12T06:26:22;21.70;76.60
57857;DHT22;43683;48.650;9.290;2023-08-12T06:28:48;21.80;76.80
57857;DHT22;43683;48.650;9.290;2023-08-12T06:31:13;21.90;76.80
57857;DHT22;43683;48.650;9.290;2023-08-12T06:33:39;22.00;76.50
57857;DHT22;43683;48.650;9.290;2023-08-12T06:36:05;22.10;75.90
57857;DHT22;43683;48.650;9.290;2023-08-12T06:38:31;22.30;75.30
57857;DHT22;43683;48.650;9.290;2023-08-12T06:40:56;22.40;74.80
57857;DHT22;43683;48.650;9.290;2023-08-12T06:43:22;22.40;74.40
57857;DHT22;43683;48.650;9.290;2023-08-12T06:45:47;22.30;74.40
57857;DHT22;43683;48.650;9.290;2023-08-12T06:48:13;22.30;74.60
57857;DHT22;43683;48.650;9.290;2023-08-12T06:50:38;22.50;74.20
57857;DHT22;43683;48.650;9.290;2023-08-12T06:53:04;22.70;73.90
57857;DHT22;43683;48.650;9.290;2023-08-12T06:55:30;22.90;73.90
57857;DHT22;43683;48.650;9.290;2023-08-12T06:57:55;22.80;74.20
57857;DHT22;43683;48.650;9.290;2023-08-12T07:00:21;23.00;74.40
57857;DHT22;43683;48.650;9.290;2023-08-12T07:02:46;23.20;74.40
57857;DHT22;43683;48.650;9.290;2023-08-12T07:05:12;23.40;74.20
57857;DHT22;43683;48.650;9.290;2023-08-12T07:07:37;23.80;73.90
57857;DHT22;43683;48.650;9.290;2023-08-12T07:10:03;24.20;73.30
57857;DHT22;43683;48.650;9.290;2023-08-12T07:12:29;24.40;72.50
57857;DHT22;43683;48.650;9.290;2023-08-12T07:14:55;24.30;71.80
57857;DHT22;43683;48.650;9.290;2023-08-12T07:17:21;24.20;71.60
57857;DHT22;43683;48.650;9.290;2023-08-12T07:19:47;24.10;71.90
57857;DHT22;43683;48.650;9.290;2023-08-12T07:22:12;24.10;72.10
57857;DHT22;43683;48.650;9.290;2023-08-12T07:24:38;24.20;71.80
57857;DHT22;43683;48.650;9.290;2023-08-12T07:27:04;24.30;70.90
57857;DHT22;43683;48.650;9.290;2023-08-12T07:29:29;24.50;70.20
57857;DHT22;43683;48.650;9.290;2023-08-12T07:31:55;24.60;70.20
57857;DHT22;43683;48.650;9.290;2023-08-12T07:34:21;24.80;69.90
57857;DHT22;43683;48.650;9.290;2023-08-12T07:36:46;25.10;70.20
57857;DHT22;43683;48.650;9.290;2023-08-12T07:39:12;25.40;69.60
57857;DHT22;43683;48.650;9.290;2023-08-12T07:41:37;25.80;68.80
57857;DHT22;43683;48.650;9.290;2023-08-12T07:44:04;26.10;68.00
57857;DHT22;43683;48.650;9.290;2023-08-12T07:46:29;26.50;67.10
57857;DHT22;43683;48.650;9.290;2023-08-12T07:48:56;26.90;66.90
57857;DHT22;43683;48.650;9.290;2023-08-12T07:51:21;27.20;65.00
57857;DHT22;43683;48.650;9.290;2023-08-12T07:53:47;27.60;63.50
57857;DHT22;43683;48.650;9.290;2023-08-12T07:56:12;28.40;61.20
57857;DHT22;43683;48.650;9.290;2023-08-12T07:58:38;29.00;59.30
57857;DHT22;43683;48.650;9.290;2023-08-12T08:01:04;29.50;57.80
57857;DHT22;43683;48.650;9.290;2023-08-12T08:03:30;29.70;56.70
57857;DHT22;43683;48.650;9.290;2023-08-12T08:05:56;29.80;56.50
57857;DHT22;43683;48.650;9.290;2023-08-12T08:08:21;30.10;55.80
57857;DHT22;43683;48.650;9.290;2023-08-12T08:10:47;30.30;55.20
57857;DHT22;43683;48.650;9.290;2023-08-12T08:13:13;30.50;54.70
57857;DHT22;43683;48.650;9.290;2023-08-12T08:15:38;30.60;54.10
57857;DHT22;43683;48.650;9.290;2023-08-12T08:18:04;30.80;54.10
57857;DHT22;43683;48.650;9.290;2023-08-12T08:20:30;31.30;53.00
57857;DHT22;43683;48.650;9.290;2023-08-12T08:22:56;31.70;52.00
57857;DHT22;43683;48.650;9.290;2023-08-12T08:25:22;31.30;52.00
57857;DHT22;43683;48.650;9.290;2023-08-12T08:27:47;30.70;52.60
57857;DHT22;43683;48.650;9.290;2023-08-12T08:30:13;30.30;53.30
57857;DHT22;43683;48.650;9.290;2023-08-12T08:32:39;29.90;53.70
57857;DHT22;43683;48.650;9.290;2023-08-12T08:35:05;29.70;54.00
57857;DHT22;43683;48.650;9.290;2023-08-12T08:37:31;29.30;54.50
57857;DHT22;43683;48.650;9.290;2023-08-12T08:39:56;29.30;54.30
57857;DHT22;43683;48.650;9.290;2023-08-12T08:42:24;29.80;53.60
57857;DHT22;43683;48.650;9.290;2023-08-12T08:44:52;30.20;53.30
57857;DHT22;43683;48.650;9.290;2023-08-12T08:47:20;30.50;52.70
57857;DHT22;43683;48.650;9.290;2023-08-12T08:49:47;30.70;52.50
57857;DHT22;43683;48.650;9.290;2023-08-12T08:52:13;30.70;52.00
57857;DHT22;43683;48.650;9.290;2023-08-12T08:54:39;30.80;52.30
57857;DHT22;43683;48.650;9.290;2023-08-12T08:57:05;30.60;52.50
57857;DHT22;43683;48.650;9.290;2023-08-12T08:59:31;30.40;52.60
57857;DHT22;43683;48.650;9.290;2023-08-12T09:01:58;30.30;52.30
57857;DHT22;43683;48.650;9.290;2023-08-12T09:04:25;30.30;51.90
57857;DHT22;43683;48.650;9.290;2023-08-12T09:06:52;30.70;52.20
57857;DHT22;43683;48.650;9.290;2023-08-12T09:09:19;31.10;51.60
57857;DHT22;43683;48.650;9.290;2023-08-12T09:11:45;31.30;51.40
57857;DHT22;43683;48.650;9.290;2023-08-12T09:14:12;31.70;50.90
57857;DHT22;43683;48.650;9.290;2023-08-12T09:16:38;32.00;50.60
57857;DHT22;43683;48.650;9.290;2023-08-12T09:19:04;32.10;50.50
57857;DHT22;43683;48.650;9.290;2023-08-12T09:21:30;32.40;50.00
57857;DHT22;43683;48.650;9.290;2023-08-12T09:23:56;32.40;49.80
57857;DHT22;43683;48.650;9.290;2023-08-12T09:26:21;32.60;49.60
57857;DHT22;43683;48.650;9.290;2023-08-12T09:28:48;32.90;48.90
57857;DHT22;43683;48.650;9.290;2023-08-12T09:33:47;32.00;48.50
57857;DHT22;43683;48.650;9.290;2023-08-12T09:36:13;31.40;49.00
57857;DHT22;43683;48.650;9.290;2023-08-12T09:38:38;31.00;49.50
57857;DHT22;43683;48.650;9.290;2023-08-12T09:41:04;30.60;49.60
57857;DHT22;43683;48.650;9.290;2023-08-12T09:43:31;30.50;49.80
57857;DHT22;43683;48.650;9.290;2023-08-12T09:45:57;30.60;49.90
57857;DHT22;43683;48.650;9.290;2023-08-12T09:48:25;31.10;49.70
57857;DHT22;43683;48.650;9.290;2023-08-12T09:50:52;31.40;48.70
57857;DHT22;43683;48.650;9.290;2023-08-12T09:53:18;31.70;47.90
57857;DHT22;43683;48.650;9.290;2023-08-12T09:55:47;32.30;46.90
57857;DHT22;43683;48.650;9.290;2023-08-12T09:58:14;32.90;45.80
57857;DHT22;43683;48.650;9.290;2023-08-12T10:00:43;33.00;45.20
57857;DHT22;43683;48.650;9.290;2023-08-12T10:03:11;32.80;45.00
57857;DHT22;43683;48.650;9.290;2023-08-12T10:05:39;32.70;45.00
57857;DHT22;43683;48.650;9.290;2023-08-12T10:08:05;32.80;44.90
57857;DHT22;43683;48.650;9.290;2023-08-12T10:10:32;33.10;44.80
57857;DHT22;43683;48.650;9.290;2023-08-12T10:12:59;33.00;45.50
57857;DHT22;43683;48.650;9.290;2023-08-12T10:15:25;32.90;45.40
57857;DHT22;43683;48.650;9.290;2023-08-12T10:17:51;32.80;45.10
57857;DHT22;43683;48.650;9.290;2023-08-12T10:20:21;32.60;45.00
57857;DHT22;43683;48.650;9.290;2023-08-12T10:22:48;32.50;45.70
57857;DHT22;43683;48.650;9.290;2023-08-12T10:25:14;32.40;45.60
57857;DHT22;43683;48.650;9.290;2023-08-12T10:27:40;32.30;45.60
57857;DHT22;43683;48.650;9.290;2023-08-12T10:30:06;32.00;46.20
57857;DHT22;43683;48.650;9.290;2023-08-12T10:32:33;31.90;46.50
57857;DHT22;43683;48.650;9.290;2023-08-12T10:35:00;31.90;46.10
57857;DHT22;43683;48.650;9.290;2023-08-12T10:37:26;31.90;46.20
57857;DHT22;43683;48.650;9.290;2023-08-12T10:39:53;31.90;45.90
57857;DHT22;43683;48.650;9.290;2023-08-12T10:42:41;32.00;46.10
57857;DHT22;43683;48.650;9.290;2023-08-12T10:45:08;32.30;45.70
57857;DHT22;43683;48.650;9.290;2023-08-12T10:48:23;32.50;45.20
57857;DHT22;43683;48.650;9.290;2023-08-12T10:50:25;32.50;44.90
57857;DHT22;43683;48.650;9.290;2023-08-12T10:52:54;32.40;44.90
57857;DHT22;43683;48.650;9.290;2023-08-12T10:55:21;32.40;44.90
57857;DHT22;43683;48.650;9.290;2023-08-12T10:57:48;32.20;45.30
57857;DHT22;43683;48.650;9.290;2023-08-12T11:00:15;32.00;45.80
57857;DHT22;43683;48.650;9.290;2023-08-12T11:02:45;32.10;45.70
57857;DHT22;43683;48.650;9.290;2023-08-12T11:05:11;32.30;45.20
57857;DHT22;43683;48.650;9.290;2023-08-12T11:12:39;33.00;44.20
57857;DHT22;43683;48.650;9.290;2023-08-12T11:15:05;32.90;44.00
57857;DHT22;43683;48.650;9.290;2023-08-12T11:17:36;33.20;43.70
57857;DHT22;43683;48.650;9.290;2023-08-12T11:20:04;33.20;43.60
57857;DHT22;43683;48.650;9.290;2023-08-12T11:22:31;33.70;43.20
57857;DHT22;43683;48.650;9.290;2023-08-12T11:24:57;33.30;43.50
57857;DHT22;43683;48.650;9.290;2023-08-12T11:27:23;32.80;44.50
57857;DHT22;43683;48.650;9.290;2023-08-12T11:29:52;33.00;44.30
57857;DHT22;43683;48.650;9.290;2023-08-12T11:32:18;33.60;43.80
57857;DHT22;43683;48.650;9.290;2023-08-12T11:34:44;33.80;43.20
57857;DHT22;43683;48.650;9.290;2023-08-12T11:37:10;33.90;43.30
57857;DHT22;43683;48.650;9.290;2023-08-12T11:39:36;33.70;43.40
57857;DHT22;43683;48.650;9.290;2023-08-12T11:42:02;33.70;43.50
57857;DHT22;43683;48.650;9.290;2023-08-12T11:44:27;33.80;43.40
57857;DHT22;43683;48.650;9.290;2023-08-12T11:46:53;33.50;43.70
57857;DHT22;43683;48.650;9.290;2023-08-12T11:49:18;33.40;43.70
57857;DHT22;43683;48.650;9.290;2023-08-12T11:51:46;33.70;43.10
57857;DHT22;43683;48.650;9.290;2023-08-12T11:54:13;34.00;43.30
57857;DHT22;43683;48.650;9.290;2023-08-12T11:56:39;34.10;42.90
57857;DHT22;43683;48.650;9.290;2023-08-12T11:59:05;34.20;42.40
57857;DHT22;43683;48.650;9.290;2023-08-12T12:01:31;34.30;42.10
57857;DHT22;43683;48.650;9.290;2023-08-12T12:03:59;34.00;42.00
57857;DHT22;43683;48.650;9.290;2023-08-12T12:06:35;34.10;41.70
57857;DHT22;43683;48.650;9.290;2023-08-12T12:09:04;34.50;40.60
57857;DHT22;43683;48.650;9.290;2023-08-12T12:11:32;34.30;40.10
57857;DHT22;43683;48.650;9.290;2023-08-12T12:14:01;34.10;40.00
57857;DHT22;43683;48.650;9.290;2023-08-12T12:16:39;33.60;40.00
57857;DHT22;43683;48.650;9.290;2023-08-12T12:19:09;33.00;40.50
57857;DHT22;43683;48.650;9.290;2023-08-12T12:21:42;32.30;41.00
57857;DHT22;43683;48.650;9.290;2023-08-12T12:24:08;31.80;41.60
57857;DHT22;43683;48.650;9.290;2023-08-12T12:26:34;31.30;42.30
57857;DHT22;43683;48.650;9.290;2023-08-12T12:29:02;30.90;42.70
57857;DHT22;43683;48.650;9.290;2023-08-12T12:31:27;30.70;43.10
57857;DHT22;43683;48.650;9.290;2023-08-12T12:33:53;30.70;43.70
57857;DHT22;43683;48.650;9.290;2023-08-12T12:36:18;30.60;43.60
57857;DHT22;43683;48.650;9.290;2023-08-12T12:38:44;30.30;43.90
57857;DHT22;43683;48.650;9.290;2023-08-12T12:41:09;29.90;44.50
57857;DHT22;43683;48.650;9.290;2023-08-12T12:43:35;29.50;45.50
57857;DHT22;43683;48.650;9.290;2023-08-12T12:46:00;28.90;46.50
57857;DHT22;43683;48.650;9.290;2023-08-12T12:48:26;28.10;48.60
57857;DHT22;43683;48.650;9.290;2023-08-12T12:50:51;27.20;50.40
57857;DHT22;43683;48.650;9.290;2023-08-12T12:53:17;26.30;53.10
57857;DHT22;43683;48.650;9.290;2023-08-12T12:55:42;24.80;58.10
57857;DHT22;43683;48.650;9.290;2023-08-12T12:58:09;23.30;63.20
57857;DHT22;43683;48.650;9.290;2023-08-12T13:00:35;22.30;65.90
57857;DHT22;43683;48.650;9.290;2023-08-12T13:03:01;21.80;67.20
57857;DHT22;43683;48.650;9.290;2023-08-12T13:05:26;21.60;67.80
57857;DHT22;43683;48.650;9.290;2023-08-12T13:07:52;21.50;68.50
57857;DHT22;43683;48.650;9.290;2023-08-12T13:10:17;21.30;69.30
57857;DHT22;43683;48.650;9.290;2023-08-12T13:12:43;21.30;69.80
57857;DHT22;43683;48.650;9.290;2023-08-12T13:15:08;21.20;70.40
57857;DHT22;43683;48.650;9.290;2023-08-12T13:17:34;21.20;70.90
57857;DHT22;43683;48.650;9.290;2023-08-12T13:20:00;21.10;71.40
57857;DHT22;43683;48.650;9.290;2023-08-12T13:22:25;21.10;71.40
57857;DHT22;43683;48.650;9.290;2023-08-12T13:24:51;21.20;71.50
57857;DHT22;43683;48.650;9.290;2023-08-12T13:27:16;21.20;71.50
57857;DHT22;43683;48.650;9.290;2023-08-12T13:29:42;21.10;72.00
57857;DHT22;43683;48.650;9.290;2023-08-12T13:32:08;21.10;72.50
57857;DHT22;43683;48.650;9.290;2023-08-12T13:34:34;21.10;73.00
57857;DHT22;43683;48.650;9.290;2023-08-12T13:37:00;21.10;73.50
57857;DHT22;43683;48.650;9.290;2023-08-12T13:39:26;21.20;73.50
57857;DHT22;43683;48.650;9.290;2023-08-12T13:41:51;21.30;73.70
57857;DHT22;43683;48.650;9.290;2023-08-12T13:44:17;21.40;73.80
57857;DHT22;43683;48.650;9.290;2023-08-12T13:46:42;21.60;73.70
57857;DHT22;43683;48.650;9.290;2023-08-12T13:49:08;21.80;73.70
57857;DHT22;43683;48.650;9.290;2023-08-12T13:51:34;22.00;73.20
57857;DHT22;43683;48.650;9.290;2023-08-12T13:53:59;22.30;73.00
57857;DHT22;43683;48.650;9.290;2023-08-12T13:56:24;22.90;72.20
57857;DHT22;43683;48.650;9.290;2023-08-12T13:58:50;24.00;70.50
57857;DHT22;43683;48.650;9.290;2023-08-12T14:01:15;24.80;68.70
57857;DHT22;43683;48.650;9.290;2023-08-12T14:03:41;25.40;67.30
57857;DHT22;43683;48.650;9.290;2023-08-12T14:06:06;26.00;66.40
57857;DHT22;43683;48.650;9.290;2023-08-12T14:08:32;26.80;66.40
57857;DHT22;43683;48.650;9.290;2023-08-12T14:10:57;27.30;64.80
57857;DHT22;43683;48.650;9.290;2023-08-12T14:13:23;27.50;64.30
57857;DHT22;43683;48.650;9.290;2023-08-12T14:15:48;27.80;63.90
57857;DHT22;43683;48.650;9.290;2023-08-12T14:18:14;27.80;63.80
57857;DHT22;43683;48.650;9.290;2023-08-12T14:20:39;27.60;64.20
57857;DHT22;43683;48.650;9.290;2023-08-12T14:23:05;27.90;64.00
57857;DHT22;43683;48.650;9.290;2023-08-12T14:25:30;28.10;63.70
57857;DHT22;43683;48.650;9.290;2023-08-12T14:27:56;28.40;63.40
57857;DHT22;43683;48.650;9.290;2023-08-12T14:30:24;28.50;63.20
57857;DHT22;43683;48.650;9.290;2023-08-12T14:32:51;28.50;63.10
57857;DHT22;43683;48.650;9.290;2023-08-12T14:35:17;28.80;63.00
57857;DHT22;43683;48.650;9.290;2023-08-12T14:37:42;28.80;63.20
57857;DHT22;43683;48.650;9.290;2023-08-12T14:40:08;29.00;63.20
57857;DHT22;43683;48.650;9.290;2023-08-12T14:42:34;29.20;63.40
57857;DHT22;43683;48.650;9.290;2023-08-12T14:45:00;29.20;63.50
57857;DHT22;43683;48.650;9.290;2023-08-12T14:47:25;29.20;63.40
57857;DHT22;43683;48.650;9.290;2023-08-12T14:49:51;29.30;63.40
57857;DHT22;43683;48.650;9.290;2023-08-12T14:52:19;29.20;63.40
57857;DHT22;43683;48.650;9.290;2023-08-12T14:54:45;29.40;63.40
57857;DHT22;43683;48.650;9.290;2023-08-12T14:57:10;29.60;62.90
57857;DHT22;43683;48.650;9.290;2023-08-12T14:59:36;29.50;62.70
57857;DHT22;43683;48.650;9.290;2023-08-12T15:02:02;29.50;62.70
57857;DHT22;43683;48.650;9.290;2023-08-12T15:04:27;29.70;62.20
57857;DHT22;43683;48.650;9.290;2023-08-12T15:06:53;30.00;61.50
57857;DHT22;43683;48.650;9.290;2023-08-12T15:09:18;30.10;61.10
57857;DHT22;43683;48.650;9.290;2023-08-12T15:15:07;29.90;60.80
57857;DHT22;43683;48.650;9.290;2023-08-12T15:17:32;29.90;61.00
57857;DHT22;43683;48.650;9.290;2023-08-12T15:19:58;30.20;60.70
57857;DHT22;43683;48.650;9.290;2023-08-12T15:22:23;30.30;60.30
57857;DHT22;43683;48.650;9.290;2023-08-12T15:24:49;30.10;60.40
57857;DHT22;43683;48.650;9.290;2023-08-12T15:27:14;30.30;60.00
57857;DHT22;43683;48.650;9.290;2023-08-12T15:29:40;30.40;59.90
57857;DHT22;43683;48.650;9.290;2023-08-12T15:32:06;30.50;60.00
57857;DHT22;43683;48.650;9.290;2023-08-12T15:34:31;30.50;59.90